Ixtapa, GRO, Mexico
Current Conditions -  °F | °C
As of 2:45 PM on Thursday 23 Oct 2014 (Local Time) from MMZH Reporting Station
Scattered Clouds Scattered Clouds  
Wind Chill: 90°   Ceiling: Unl
Heat Index: 100°   Visibility: 8mi
Dew Point: 75°   Wind: 9mph
Humidity: 62%   Direction: 240°WSW
Pressure: 29.82"   Gusts: NA
Location:  17.66°N, 101.59°W
Report Text: MMZH 231945Z 24008KT 8SM SCT020TCU SCT250 32/24 A2982 RMK 8/202
Loading
Personal Weather Stations






























Interactive Weather Map New forecast layout! Learn more

10-Day Weather Forecast

Advertisements
Track Severe Weather on mobile